createdAt,value
2022-09-01T00:04:27.147Z,98386.06
2022-09-01T00:09:28.679Z,98391.47
2022-09-01T00:14:31.978Z,98396.84
2022-09-01T00:19:33.957Z,98396.44
2022-09-01T00:24:35.920Z,98397.03
2022-09-01T00:29:37.353Z,98391.03
2022-09-01T00:34:38.921Z,98394.56
2022-09-01T00:39:40.234Z,98387.72
2022-09-01T00:44:41.714Z,98382.31
2022-09-01T00:49:44.962Z,98383.38
2022-09-01T00:54:50.460Z,98383.97
2022-09-01T00:59:54.507Z,98374.84
2022-09-01T01:04:59.322Z,98382.34
2022-09-01T01:10:00.784Z,98384.81
2022-09-01T01:15:03.452Z,98375.69
2022-09-01T01:20:25.391Z,98384.19
2022-09-01T01:25:27.654Z,98381.84
2022-09-01T01:30:33.695Z,98378.94
2022-09-01T01:35:35.287Z,98373.97
2022-09-01T01:40:38.250Z,98381.44
2022-09-01T01:45:39.998Z,98373.75
2022-09-01T01:50:42.929Z,98379.97
2022-09-01T01:55:49.474Z,98378.69
2022-09-01T02:00:52.049Z,98382.19
2022-09-01T02:05:54.213Z,98382.59
2022-09-01T02:10:55.702Z,98384.69
2022-09-01T02:15:59.580Z,98384.28
2022-09-01T02:21:01.513Z,98381.75
2022-09-01T02:26:16.077Z,98383.63
2022-09-01T02:31:20.869Z,98377.19
2022-09-01T02:36:25.009Z,98374.25
2022-09-01T02:41:29.977Z,98371.97
2022-09-01T02:46:32.664Z,98367.00
2022-09-01T02:51:34.441Z,98363.06
2022-09-01T02:56:36.374Z,98356.44
2022-09-01T03:01:37.893Z,98361.38
2022-09-01T03:06:39.743Z,98355.59
2022-09-01T03:11:43.150Z,98349.56
2022-09-01T03:16:44.616Z,98346.88
2022-09-01T03:21:46.357Z,98345.22
2022-09-01T03:26:51.051Z,98355.13
2022-09-01T03:31:53.341Z,98346.25
2022-09-01T03:36:54.839Z,98364.47
2022-09-01T03:42:03.466Z,98346.47
2022-09-01T03:47:05.003Z,98354.72
2022-09-01T03:52:08.862Z,98368.00
2022-09-01T03:57:10.632Z,98366.34
2022-09-01T04:02:15.369Z,98363.00
2022-09-01T04:07:19.380Z,98365.06
2022-09-01T04:12:20.999Z,98365.47
2022-09-01T04:17:44.873Z,98367.09
2022-09-01T04:22:47.494Z,98367.72
2022-09-01T04:27:49.949Z,98366.66
2022-09-01T04:32:52.882Z,98368.75
2022-09-01T04:37:55.461Z,98363.94
2022-09-01T04:42:56.809Z,98368.91
2022-09-01T04:48:00.659Z,98364.56
2022-09-01T04:53:04.470Z,98365.56
2022-09-01T04:58:10.303Z,98367.44
2022-09-01T05:03:14.070Z,98365.81
2022-09-01T05:08:47.793Z,98369.75
2022-09-01T05:14:00.437Z,98373.72
2022-09-01T05:19:02.180Z,98377.66
2022-09-01T05:24:08.940Z,98377.28
2022-09-01T05:29:13.333Z,98368.59
2022-09-01T05:34:26.242Z,98378.75
2022-09-01T05:39:28.512Z,98388.72
2022-09-01T05:44:30.853Z,98391.44
2022-09-01T05:49:33.088Z,98384.84
2022-09-01T05:54:37.900Z,98391.28
2022-09-01T05:59:41.400Z,98385.09
2022-09-01T06:04:49.673Z,98388.22
2022-09-01T06:09:59.991Z,98383.03
2022-09-01T06:15:01.879Z,98387.19
2022-09-01T06:20:10.377Z,98384.94
2022-09-01T06:25:12.786Z,98393.03
2022-09-01T06:30:24.671Z,98389.72
2022-09-01T06:35:47.068Z,98388.53
2022-09-01T06:40:50.998Z,98387.50
2022-09-01T06:45:56.453Z,98392.47
2022-09-01T06:51:20.901Z,98398.91
2022-09-01T06:56:29.147Z,98402.81
2022-09-01T07:01:34.349Z,98399.72
2022-09-01T07:12:34.306Z,98409.25
2022-09-01T07:17:36.527Z,98415.22
2022-09-01T07:28:00.551Z,98407.56
2022-09-01T07:43:52.842Z,98415.72
2022-09-01T07:54:31.602Z,98424.41
2022-09-01T07:59:35.252Z,98416.47
2022-09-01T08:04:44.016Z,98421.31
2022-09-01T08:09:45.390Z,98421.03
2022-09-01T08:15:12.786Z,98426.88
2022-09-01T08:20:14.674Z,98428.47
2022-09-01T08:25:26.405Z,98430.69
2022-09-01T08:30:30.635Z,98429.06
2022-09-01T08:35:32.582Z,98426.88
2022-09-01T08:40:34.050Z,98440.69
2022-09-01T08:45:39.801Z,98423.94
2022-09-01T08:50:43.814Z,98440.69
2022-09-01T08:55:51.590Z,98439.91
2022-09-01T09:00:59.098Z,98433.31
2022-09-01T09:06:11.122Z,98437.50
2022-09-01T09:11:31.248Z,98440.66
2022-09-01T09:16:37.655Z,98444.25
2022-09-01T09:21:43.274Z,98434.22
2022-09-01T09:26:48.397Z,98439.56
2022-09-01T09:32:01.248Z,98438.91
2022-09-01T09:42:33.550Z,98436.59
2022-09-01T09:47:43.745Z,98435.06
2022-09-01T09:52:46.877Z,98432.03
2022-09-01T09:57:50.937Z,98441.13
2022-09-01T10:03:01.475Z,98435.72
2022-09-01T10:08:07.773Z,98431.94
2022-09-01T10:13:11.679Z,98437.69
2022-09-01T10:18:29.033Z,98440.03
2022-09-01T10:23:32.796Z,98437.31
2022-09-01T10:28:39.119Z,98429.41
2022-09-01T10:33:41.079Z,98426.44
2022-09-01T10:38:46.870Z,98427.41
2022-09-01T10:43:58.730Z,98425.28
2022-09-01T10:49:04.629Z,98427.75
2022-09-01T10:54:06.901Z,98426.44
2022-09-01T11:04:32.338Z,98423.84
2022-09-01T11:09:44.245Z,98427.81
2022-09-01T11:14:53.693Z,98415.56
2022-09-01T11:19:58.314Z,98420.81
2022-09-01T11:25:11.793Z,98419.56
2022-09-01T11:30:16.506Z,98422.75
2022-09-01T11:35:19.874Z,98415.28
2022-09-01T11:40:23.764Z,98414.69
2022-09-01T11:45:28.311Z,98397.78
2022-09-01T11:50:33.784Z,98406.25
2022-09-01T11:55:36.816Z,98397.34
2022-09-01T12:00:39.709Z,98395.53
2022-09-01T12:05:41.104Z,98400.00
2022-09-01T12:10:44.300Z,98389.28
2022-09-01T12:16:16.356Z,98400.06
2022-09-01T12:21:20.654Z,98394.97
2022-09-01T12:26:29.034Z,98394.47
2022-09-01T12:31:30.489Z,98399.00
2022-09-01T12:36:34.773Z,98381.03
2022-09-01T12:41:38.965Z,98386.31
2022-09-01T12:46:44.876Z,98389.59
2022-09-01T12:51:49.257Z,98388.59
2022-09-01T12:56:51.257Z,98387.13
2022-09-01T13:01:52.764Z,98378.00
2022-09-01T13:06:55.328Z,98380.03
2022-09-01T13:12:16.209Z,98368.66
2022-09-01T13:17:18.281Z,98366.81
2022-09-01T13:22:19.614Z,98363.44
2022-09-01T13:27:22.365Z,98361.00
2022-09-01T13:32:24.916Z,98361.22
2022-09-01T13:37:26.338Z,98359.41
2022-09-01T13:42:28.549Z,98356.88
2022-09-01T13:47:30.996Z,98349.38
2022-09-01T13:52:33.030Z,98354.59
2022-09-01T13:57:36.497Z,98359.16
2022-09-01T14:02:39.496Z,98356.63
2022-09-01T14:07:40.862Z,98348.19
2022-09-01T14:12:42.609Z,98340.84
2022-09-01T14:17:44.490Z,98345.22
2022-09-01T14:22:46.597Z,98342.53
2022-09-01T14:27:48.858Z,98338.13
2022-09-01T14:32:51.305Z,98340.59
2022-09-01T14:37:53.990Z,98340.56
2022-09-01T14:42:56.077Z,98341.44
2022-09-01T14:47:58.633Z,98336.50
2022-09-01T14:53:01.073Z,98343.88
2022-09-01T14:58:04.173Z,98345.25
2022-09-01T15:03:05.594Z,98336.66
2022-09-01T15:08:08.060Z,98342.25
2022-09-01T15:13:09.479Z,98335.84
2022-09-01T15:18:11.078Z,98331.00
2022-09-01T15:23:16.920Z,98339.09
2022-09-01T15:28:18.387Z,98337.44
2022-09-01T15:33:20.064Z,98344.53
2022-09-01T15:38:27.155Z,98339.09
2022-09-01T15:43:31.412Z,98340.75
2022-09-01T15:48:33.541Z,98333.66
2022-09-01T15:53:34.955Z,98337.94
2022-09-01T15:58:59.462Z,98334.53
2022-09-01T16:03:57.823Z,98335.75
2022-09-01T16:08:59.268Z,98340.44
2022-09-01T16:14:01.602Z,98331.59
2022-09-01T16:19:15.823Z,98331.69
2022-09-01T16:24:17.274Z,98337.59
2022-09-01T16:29:25.153Z,98332.94
2022-09-01T16:34:28.627Z,98333.22
2022-09-01T16:39:50.663Z,98333.69
2022-09-01T16:44:51.994Z,98330.78
2022-09-01T16:50:06.271Z,98335.25
2022-09-01T16:55:18.417Z,98337.72
2022-09-01T17:00:21.009Z,98335.25
2022-09-01T17:05:25.337Z,98332.44
2022-09-01T17:10:37.129Z,98337.97
2022-09-01T17:15:41.604Z,98337.50
2022-09-01T17:20:54.964Z,98337.63
2022-09-01T17:26:18.592Z,98337.25
2022-09-01T17:31:20.548Z,98349.66
2022-09-01T17:36:27.939Z,98348.44
2022-09-01T17:41:38.898Z,98346.47
2022-09-01T17:46:45.379Z,98354.09
2022-09-01T17:51:46.784Z,98363.44
2022-09-01T17:56:48.112Z,98369.19
2022-09-01T18:01:57.275Z,98358.66
2022-09-01T18:06:59.220Z,98364.44
2022-09-01T18:12:08.293Z,98366.03
2022-09-01T18:17:17.330Z,98372.03
2022-09-01T18:22:21.622Z,98371.72
2022-09-01T18:27:24.389Z,98360.63
2022-09-01T18:32:41.486Z,98368.44
2022-09-01T18:37:50.159Z,98377.94
2022-09-01T18:42:54.665Z,98379.31
2022-09-01T18:48:19.333Z,98380.66
2022-09-01T18:53:27.531Z,98381.59
2022-09-01T18:58:38.568Z,98386.22
2022-09-01T19:03:54.994Z,98386.31
2022-09-01T19:09:03.944Z,98379.91
2022-09-01T19:14:19.101Z,98379.53
2022-09-01T19:19:29.781Z,98388.94
2022-09-01T19:24:35.472Z,98386.06
2022-09-01T19:29:40.837Z,98382.38
2022-09-01T19:34:44.966Z,98375.75
2022-09-01T19:39:50.863Z,98374.16
2022-09-01T19:45:09.523Z,98380.06
2022-09-01T19:50:22.539Z,98380.78
2022-09-01T19:55:31.100Z,98375.69
2022-09-01T20:00:53.437Z,98379.47
2022-09-01T20:11:29.880Z,98391.28
2022-09-01T20:16:40.406Z,98389.44
2022-09-01T20:21:45.934Z,98388.06
2022-09-01T20:26:47.284Z,98383.47
2022-09-01T20:32:15.914Z,98391.19
2022-09-01T20:43:54.264Z,98377.78
2022-09-01T20:48:56.876Z,98379.03
2022-09-01T20:54:00.360Z,98386.94
2022-09-01T20:59:04.750Z,98386.16
2022-09-01T21:04:09.217Z,98387.03
2022-09-01T21:09:29.855Z,98386.84
2022-09-01T21:14:40.668Z,98396.22
2022-09-01T21:20:01.455Z,98390.03
2022-09-01T21:25:03.886Z,98384.25
2022-09-01T21:30:07.300Z,98381.38
2022-09-01T21:35:10.088Z,98383.47
2022-09-01T21:40:12.168Z,98381.78
2022-09-01T21:45:15.303Z,98377.66
2022-09-01T21:50:18.294Z,98372.66
2022-09-01T21:55:22.857Z,98372.28
2022-09-01T22:00:27.046Z,98376.44
2022-09-01T22:05:29.391Z,98372.50
2022-09-01T22:10:31.792Z,98371.25
2022-09-01T22:15:33.142Z,98364.00
2022-09-01T22:20:35.127Z,98365.69
2022-09-01T22:25:40.075Z,98362.56
2022-09-01T22:30:46.278Z,98357.00
2022-09-01T22:35:49.020Z,98357.59
2022-09-01T22:40:52.612Z,98366.75
2022-09-01T22:45:55.034Z,98367.59
2022-09-01T22:50:56.506Z,98364.91
2022-09-01T22:55:57.904Z,98363.25
2022-09-01T23:01:00.319Z,98356.63
2022-09-01T23:06:06.607Z,98354.97
2022-09-01T23:11:08.103Z,98354.53
2022-09-01T23:16:11.082Z,98362.81
2022-09-01T23:21:14.126Z,98358.84
2022-09-01T23:26:15.915Z,98345.78
2022-09-01T23:31:19.030Z,98351.59
2022-09-01T23:36:25.723Z,98351.78
2022-09-01T23:41:30.965Z,98350.75
2022-09-01T23:46:33.768Z,98352.41
2022-09-01T23:51:35.549Z,98348.47
2022-09-01T23:56:37.593Z,98350.31
